createdAt,value
2023-05-04T00:01:30.026Z,102523.28
2023-05-04T00:03:56.797Z,102520.72
2023-05-04T00:06:23.760Z,102518.16
2023-05-04T00:08:50.210Z,102521.56
2023-05-04T00:11:17.393Z,102519.84
2023-05-04T00:13:43.847Z,102513.06
2023-05-04T00:16:11.054Z,102509.63
2023-05-04T00:18:37.954Z,102507.91
2023-05-04T00:21:04.368Z,102500.22
2023-05-04T00:23:30.875Z,102501.09
2023-05-04T00:26:00.625Z,102501.94
2023-05-04T00:28:27.411Z,102492.53
2023-05-04T00:30:54.654Z,102498.50
2023-05-04T00:33:22.005Z,102496.78
2023-05-04T00:35:48.414Z,102490.00
2023-05-04T00:38:16.626Z,102478.03
2023-05-04T00:40:43.049Z,102482.28
2023-05-04T00:43:09.449Z,102478.88
2023-05-04T00:45:35.942Z,102478.88
2023-05-04T00:48:02.758Z,102474.59
2023-05-04T00:50:29.407Z,102480.56
2023-05-04T00:52:58.254Z,102474.59
2023-05-04T00:55:24.758Z,102473.75
2023-05-04T00:57:52.614Z,102469.50
2023-05-04T01:00:19.418Z,102473.72
2023-05-04T01:02:45.952Z,102466.94
2023-05-04T01:05:12.620Z,102466.06
2023-05-04T01:07:58.800Z,102464.38
2023-05-04T01:10:30.566Z,102466.06
2023-05-04T01:13:03.980Z,102463.50
2023-05-04T01:15:32.862Z,102455.81
2023-05-04T01:17:59.268Z,102455.81
2023-05-04T01:20:25.793Z,102459.22
2023-05-04T01:22:52.282Z,102447.25
2023-05-04T01:25:19.009Z,102443.84
2023-05-04T01:28:20.781Z,102455.81
2023-05-04T01:30:51.319Z,102452.38
2023-05-04T01:33:19.055Z,102457.50
2023-05-04T01:35:46.139Z,102455.78
2023-05-04T01:38:12.634Z,102451.53
2023-05-04T01:40:39.050Z,102448.97
2023-05-04T01:43:05.400Z,102455.75
2023-05-04T01:45:31.975Z,102454.03
2023-05-04T01:47:58.421Z,102450.66
2023-05-04T01:50:24.961Z,102449.81
2023-05-04T01:52:51.345Z,102454.03
2023-05-04T01:55:17.839Z,102448.09
2023-05-04T01:57:44.235Z,102457.47
2023-05-04T02:00:11.976Z,102448.91
2023-05-04T02:02:38.434Z,102446.38
2023-05-04T02:05:05.257Z,102438.69
2023-05-04T02:07:31.860Z,102440.41
2023-05-04T02:09:58.384Z,102439.53
2023-05-04T02:12:24.888Z,102430.16
2023-05-04T02:14:51.493Z,102433.56
2023-05-04T02:17:17.982Z,102429.28
2023-05-04T02:19:44.365Z,102425.00
2023-05-04T02:22:10.853Z,102425.00
2023-05-04T02:24:37.326Z,102425.84
2023-05-04T02:27:03.786Z,102421.59
2023-05-04T02:29:30.510Z,102422.44
2023-05-04T02:31:56.914Z,102425.84
2023-05-04T02:34:23.794Z,102430.09
2023-05-04T02:36:50.274Z,102427.53
2023-05-04T02:39:16.770Z,102414.75
2023-05-04T02:41:43.198Z,102419.00
2023-05-04T02:44:09.622Z,102420.69
2023-05-04T02:46:36.032Z,102404.47
2023-05-04T02:49:02.416Z,102407.91
2023-05-04T02:51:28.805Z,102405.28
2023-05-04T02:53:55.226Z,102395.94
2023-05-04T02:56:21.821Z,102401.00
2023-05-04T02:58:48.204Z,102401.88
2023-05-04T03:01:14.679Z,102395.88
2023-05-04T03:03:41.092Z,102399.25
2023-05-04T03:06:07.619Z,102395.00
2023-05-04T03:08:33.971Z,102400.97
2023-05-04T03:11:00.388Z,102404.34
2023-05-04T03:13:26.782Z,102400.94
2023-05-04T03:15:53.268Z,102394.09
2023-05-04T03:18:19.633Z,102400.91
2023-05-04T03:20:46.016Z,102399.22
2023-05-04T03:23:12.423Z,102397.47
2023-05-04T03:25:38.910Z,102391.50
2023-05-04T03:28:05.509Z,102384.69
2023-05-04T03:30:31.965Z,102384.66
2023-05-04T03:32:58.472Z,102383.78
2023-05-04T03:35:25.310Z,102389.78
2023-05-04T03:37:51.874Z,102378.66
2023-05-04T03:40:22.806Z,102382.94
2023-05-04T03:42:49.224Z,102377.81
2023-05-04T03:45:15.934Z,102378.66
2023-05-04T03:47:42.607Z,102376.09
2023-05-04T03:50:09.654Z,102363.31
2023-05-04T03:52:36.041Z,102372.69
2023-05-04T03:55:02.465Z,102368.41
2023-05-04T03:57:28.880Z,102364.16
2023-05-04T03:59:57.120Z,102370.13
2023-05-04T04:02:24.365Z,102365.84
2023-05-04T04:04:50.846Z,102361.56
2023-05-04T04:07:17.263Z,102362.41
2023-05-04T04:09:43.659Z,102358.13
2023-05-04T04:12:10.042Z,102359.00
2023-05-04T04:14:36.382Z,102366.66
2023-05-04T04:17:02.784Z,102359.84
2023-05-04T04:19:29.130Z,102364.94
2023-05-04T04:21:55.618Z,102364.94
2023-05-04T04:24:22.042Z,102361.56
2023-05-04T04:26:48.569Z,102361.56
2023-05-04T04:29:14.992Z,102361.56
2023-05-04T04:31:41.372Z,102356.47
2023-05-04T04:34:07.762Z,102353.94
2023-05-04T04:36:34.838Z,102363.31
2023-05-04T04:39:01.278Z,102358.22
2023-05-04T04:41:27.756Z,102358.22
2023-05-04T04:43:54.185Z,102364.16
2023-05-04T04:46:20.642Z,102359.06
2023-05-04T04:48:47.826Z,102350.56
2023-05-04T04:51:14.284Z,102347.19
2023-05-04T04:53:40.716Z,102347.22
2023-05-04T04:56:10.110Z,102353.22
2023-05-04T04:58:36.544Z,102345.56
2023-05-04T05:01:04.850Z,102355.78
2023-05-04T05:03:32.215Z,102351.50
2023-05-04T05:06:01.577Z,102343.03
2023-05-04T05:08:28.112Z,102355.81
2023-05-04T05:10:54.618Z,102346.47
2023-05-04T05:13:21.339Z,102346.50
2023-05-04T05:15:47.920Z,102340.56
2023-05-04T05:18:14.290Z,102338.00
2023-05-04T05:20:40.703Z,102339.72
2023-05-04T05:23:07.409Z,102338.00
2023-05-04T05:25:33.796Z,102335.47
2023-05-04T05:28:00.797Z,102339.75
2023-05-04T05:30:28.500Z,102338.91
2023-05-04T05:32:55.056Z,102344.03
2023-05-04T05:35:21.932Z,102330.41
2023-05-04T05:37:49.247Z,102334.66
2023-05-04T05:40:15.712Z,102330.44
2023-05-04T05:42:45.200Z,102332.16
2023-05-04T05:45:11.760Z,102332.97
2023-05-04T05:47:38.143Z,102327.88
2023-05-04T05:50:05.223Z,102326.16
2023-05-04T05:52:32.051Z,102333.84
2023-05-04T05:54:59.885Z,102321.91
2023-05-04T05:57:29.078Z,102325.31
2023-05-04T05:59:56.576Z,102319.31
2023-05-04T06:02:23.525Z,102320.19
2023-05-04T06:04:50.056Z,102317.59
2023-05-04T06:07:16.526Z,102314.19
2023-05-04T06:09:42.928Z,102317.56
2023-05-04T06:12:13.418Z,102314.09
2023-05-04T06:14:39.841Z,102309.78
2023-05-04T06:17:06.210Z,102312.31
2023-05-04T06:19:37.784Z,102312.91
2023-05-04T06:22:04.632Z,102311.31
2023-05-04T06:24:32.226Z,102300.72
2023-05-04T06:26:58.793Z,102299.25
2023-05-04T06:29:25.555Z,102308.03
2023-05-04T06:31:52.009Z,102295.84
2023-05-04T06:34:18.913Z,102303.41
2023-05-04T06:36:45.366Z,102294.78
2023-05-04T06:39:11.874Z,102297.06
2023-05-04T06:41:38.376Z,102293.44
2023-05-04T06:44:05.349Z,102290.06
2023-05-04T06:46:34.670Z,102295.38
2023-05-04T06:49:01.159Z,102284.19
2023-05-04T06:51:27.527Z,102279.69
2023-05-04T06:53:53.905Z,102286.28
2023-05-04T06:56:20.336Z,102273.25
2023-05-04T06:58:46.826Z,102278.25
2023-05-04T07:01:13.324Z,102274.75
2023-05-04T07:03:39.714Z,102276.53
2023-05-04T07:06:07.155Z,102269.59
2023-05-04T07:08:34.022Z,102267.75
2023-05-04T07:11:00.716Z,102273.47
2023-05-04T07:13:27.350Z,102266.38
2023-05-04T07:15:53.729Z,102267.19
2023-05-04T07:18:20.167Z,102261.88
2023-05-04T07:20:46.561Z,102264.94
2023-05-04T07:23:12.979Z,102259.25
2023-05-04T07:25:39.410Z,102257.59
2023-05-04T07:28:05.875Z,102246.06
2023-05-04T07:30:32.352Z,102254.81
2023-05-04T07:32:58.761Z,102251.22
2023-05-04T07:35:25.350Z,102250.28
2023-05-04T07:37:51.887Z,102247.69
2023-05-04T07:40:18.379Z,102235.00
2023-05-04T07:42:44.846Z,102238.69
2023-05-04T07:45:11.812Z,102245.06
2023-05-04T07:47:38.180Z,102248.81
2023-05-04T07:50:05.242Z,102247.19
2023-05-04T07:52:31.956Z,102240.63
2023-05-04T07:54:58.357Z,102237.50
2023-05-04T07:57:24.772Z,102238.75
2023-05-04T07:59:55.892Z,102228.94
2023-05-04T08:02:22.780Z,102228.41
2023-05-04T08:04:49.345Z,102227.56
2023-05-04T08:07:17.067Z,102223.44
2023-05-04T08:09:43.532Z,102215.56
2023-05-04T08:12:11.914Z,102211.63
2023-05-04T08:14:39.454Z,102215.69
2023-05-04T08:17:05.993Z,102203.53
2023-05-04T08:19:32.424Z,102216.47
2023-05-04T08:21:59.512Z,102203.69
2023-05-04T08:24:25.948Z,102205.16
2023-05-04T08:27:00.062Z,102198.97
2023-05-04T08:29:36.179Z,102192.63
2023-05-04T08:32:02.695Z,102186.78
2023-05-04T08:34:29.240Z,102188.81
2023-05-04T08:36:55.647Z,102181.63
2023-05-04T08:39:22.479Z,102182.94
2023-05-04T08:41:48.891Z,102174.41
2023-05-04T08:44:17.564Z,102173.97
2023-05-04T08:46:52.238Z,102173.38
2023-05-04T08:49:24.545Z,102172.59
2023-05-04T08:51:51.761Z,102161.41
2023-05-04T08:54:18.833Z,102156.59
2023-05-04T08:56:46.971Z,102151.22
2023-05-04T08:59:21.581Z,102151.44
2023-05-04T09:01:58.544Z,102152.41
2023-05-04T09:04:29.246Z,102156.41
2023-05-04T09:06:56.895Z,102152.69
2023-05-04T09:09:27.605Z,102147.25
2023-05-04T09:11:54.021Z,102140.38
2023-05-04T09:14:22.578Z,102135.09
2023-05-04T09:16:49.083Z,102138.09
2023-05-04T09:19:19.621Z,102135.13
2023-05-04T09:21:47.074Z,102130.28
2023-05-04T09:24:13.547Z,102124.53
2023-05-04T09:26:39.965Z,102116.19
2023-05-04T09:29:14.273Z,102124.75
2023-05-04T09:31:51.229Z,102125.09
2023-05-04T09:34:20.325Z,102118.84
2023-05-04T09:36:58.764Z,102129.22
2023-05-04T09:39:25.287Z,102119.75
2023-05-04T09:41:51.901Z,102118.03
2023-05-04T09:44:23.014Z,102124.88
2023-05-04T09:46:57.532Z,102103.59
2023-05-04T09:49:34.516Z,102108.00
2023-05-04T09:52:02.718Z,102111.44
2023-05-04T09:54:35.177Z,102106.69
2023-05-04T09:57:11.454Z,102098.66
2023-05-04T09:59:38.390Z,102099.25
2023-05-04T10:02:14.450Z,102103.56
2023-05-04T10:04:49.813Z,102093.31
2023-05-04T10:07:17.247Z,102084.66
2023-05-04T10:09:44.426Z,102085.63
2023-05-04T10:12:10.827Z,102073.06
2023-05-04T10:14:37.312Z,102074.69
2023-05-04T10:17:51.549Z,102067.19
2023-05-04T10:20:26.906Z,102061.06
2023-05-04T10:23:18.024Z,102061.97
2023-05-04T10:25:57.656Z,102058.38
2023-05-04T10:29:02.103Z,102043.72
2023-05-04T10:31:39.613Z,102053.06
2023-05-04T10:34:06.462Z,102034.78
2023-05-04T10:36:39.817Z,102042.59
2023-05-04T10:39:19.085Z,102029.97
2023-05-04T10:41:59.535Z,102030.72
2023-05-04T10:44:27.678Z,102019.38
2023-05-04T10:47:09.111Z,102021.22
2023-05-04T10:49:36.078Z,102024.88
2023-05-04T10:52:15.941Z,102020.53
2023-05-04T10:54:43.607Z,102009.81
2023-05-04T10:57:12.484Z,102008.69
2023-05-04T10:59:41.312Z,101996.25
2023-05-04T11:02:08.018Z,101994.72
2023-05-04T11:04:35.760Z,101988.59
2023-05-04T11:07:05.137Z,101984.03
2023-05-04T11:09:37.786Z,101992.75
2023-05-04T11:12:04.908Z,101976.44
2023-05-04T11:14:31.982Z,101975.19
2023-05-04T11:19:52.795Z,101971.16
2023-05-04T11:22:20.215Z,101955.53
2023-05-04T11:24:48.783Z,101961.81
2023-05-04T11:27:26.275Z,101947.28
2023-05-04T11:30:04.313Z,101944.75
2023-05-04T11:32:35.166Z,101948.41
2023-05-04T11:35:02.902Z,101936.25
2023-05-04T11:37:47.171Z,101935.25
2023-05-04T11:40:19.260Z,101924.22
2023-05-04T11:42:47.008Z,101925.50
2023-05-04T11:45:18.213Z,101924.31
2023-05-04T11:47:46.058Z,101921.69
2023-05-04T11:50:14.503Z,101912.41
2023-05-04T11:52:41.551Z,101906.25
2023-05-04T11:55:13.408Z,101908.66
2023-05-04T11:57:40.286Z,101900.84
2023-05-04T12:00:08.895Z,101904.75
2023-05-04T12:02:35.795Z,101911.25
2023-05-04T12:05:02.255Z,101920.06
2023-05-04T12:07:28.815Z,101913.59
2023-05-04T12:09:55.418Z,101908.06
2023-05-04T12:12:21.851Z,101904.75
2023-05-04T12:14:52.789Z,101911.94
2023-05-04T12:17:20.401Z,101905.94
2023-05-04T12:19:51.881Z,101902.34
2023-05-04T12:22:26.338Z,101899.94
2023-05-04T12:24:52.897Z,101898.44
2023-05-04T12:27:19.312Z,101895.88
2023-05-04T12:29:45.867Z,101905.13
2023-05-04T12:32:12.390Z,101900.66
2023-05-04T12:34:38.910Z,101891.06
2023-05-04T12:37:05.685Z,101886.16
2023-05-04T12:39:33.193Z,101882.22
2023-05-04T12:42:04.064Z,101872.59
2023-05-04T12:44:33.914Z,101864.75
2023-05-04T12:47:00.387Z,101866.59
2023-05-04T12:49:26.839Z,101860.72
2023-05-04T12:51:53.191Z,101853.69
2023-05-04T12:54:19.670Z,101850.31
2023-05-04T12:56:46.081Z,101839.94
2023-05-04T12:59:12.541Z,101836.03
2023-05-04T13:01:41.404Z,101836.13
2023-05-04T13:04:08.023Z,101837.06
2023-05-04T13:06:34.708Z,101830.66
2023-05-04T13:09:05.780Z,101830.09
2023-05-04T13:11:32.660Z,101828.84
2023-05-04T13:14:01.870Z,101836.53
2023-05-04T13:16:29.104Z,101825.13
2023-05-04T13:18:55.611Z,101813.97
2023-05-04T13:21:22.065Z,101804.91
2023-05-04T13:23:48.699Z,101801.63
2023-05-04T13:26:15.286Z,101804.91
2023-05-04T13:28:41.797Z,101807.09
2023-05-04T13:31:09.619Z,101801.72
2023-05-04T13:33:39.485Z,101793.53
2023-05-04T13:36:06.988Z,101787.81
2023-05-04T13:38:33.659Z,101784.97
2023-05-04T13:41:00.161Z,101784.75
2023-05-04T13:43:26.847Z,101768.31
2023-05-04T13:45:53.299Z,101769.66
2023-05-04T13:48:19.799Z,101761.56
2023-05-04T13:50:46.331Z,101758.84
2023-05-04T13:53:12.889Z,101752.09
2023-05-04T13:55:39.611Z,101751.97
2023-05-04T13:58:06.118Z,101743.53
2023-05-04T14:00:32.521Z,101743.47
2023-05-04T14:02:59.474Z,101742.78
2023-05-04T14:05:26.112Z,101732.06
2023-05-04T14:07:52.870Z,101733.16
2023-05-04T14:10:19.261Z,101722.31
2023-05-04T14:12:45.750Z,101722.38
2023-05-04T14:15:12.234Z,101716.06
2023-05-04T14:17:39.738Z,101710.34
2023-05-04T14:20:07.275Z,101700.56
2023-05-04T14:22:35.074Z,101700.44
2023-05-04T14:25:04.279Z,101698.91
2023-05-04T14:27:34.390Z,101688.34
2023-05-04T14:30:02.206Z,101689.22
2023-05-04T14:32:28.641Z,101688.00
2023-05-04T14:35:02.001Z,101688.13
2023-05-04T14:37:28.507Z,101678.81
2023-05-04T14:39:54.920Z,101687.41
2023-05-04T14:42:22.376Z,101681.44
2023-05-04T14:44:48.723Z,101672.50
2023-05-04T14:47:15.136Z,101676.81
2023-05-04T14:49:44.730Z,101678.00
2023-05-04T14:52:11.334Z,101678.94
2023-05-04T14:54:37.738Z,101677.63
2023-05-04T14:57:04.582Z,101682.75
2023-05-04T14:59:30.970Z,101672.81
2023-05-04T15:01:58.040Z,101666.97
2023-05-04T15:04:24.530Z,101661.91
2023-05-04T15:06:52.383Z,101649.13
2023-05-04T15:09:18.804Z,101657.81
2023-05-04T15:11:46.181Z,101647.47
2023-05-04T15:14:12.628Z,101645.06
2023-05-04T15:16:39.339Z,101648.38
2023-05-04T15:19:06.952Z,101655.75
2023-05-04T15:21:33.689Z,101644.56
2023-05-04T15:24:00.551Z,101637.25
2023-05-04T15:26:27.233Z,101639.28
2023-05-04T15:28:54.341Z,101643.56
2023-05-04T15:31:21.261Z,101639.50
2023-05-04T15:33:48.742Z,101637.47
2023-05-04T15:36:15.158Z,101642.59
2023-05-04T15:38:43.447Z,101641.38
2023-05-04T15:41:09.875Z,101640.78
2023-05-04T15:43:36.335Z,101641.47
2023-05-04T15:46:03.024Z,101631.94
2023-05-04T15:48:29.516Z,101618.38
2023-05-04T15:50:56.165Z,101626.91
2023-05-04T15:53:22.676Z,101627.09
2023-05-04T15:55:50.218Z,101632.53
2023-05-04T15:58:16.595Z,101616.91
2023-05-04T16:00:43.102Z,101623.25
2023-05-04T16:03:09.772Z,101624.59
2023-05-04T16:05:36.259Z,101615.03
2023-05-04T16:08:02.818Z,101611.91
2023-05-04T16:10:29.276Z,101612.16
2023-05-04T16:12:55.842Z,101610.09
2023-05-04T16:15:22.571Z,101597.84
2023-05-04T16:17:49.053Z,101596.88
2023-05-04T16:20:15.599Z,101594.16
2023-05-04T16:22:42.156Z,101587.69
2023-05-04T16:25:10.974Z,101586.38
2023-05-04T16:27:37.998Z,101583.44
2023-05-04T16:30:05.242Z,101581.59
2023-05-04T16:32:32.040Z,101583.00
2023-05-04T16:34:58.459Z,101581.78
2023-05-04T16:37:24.918Z,101575.97
2023-05-04T16:39:51.314Z,101574.53
2023-05-04T16:42:19.030Z,101571.22
2023-05-04T16:44:46.558Z,101573.84
2023-05-04T16:47:12.906Z,101567.44
2023-05-04T16:49:39.368Z,101572.97
2023-05-04T16:52:05.830Z,101563.00
2023-05-04T16:54:32.323Z,101568.75
2023-05-04T16:56:58.827Z,101563.78
2023-05-04T16:59:25.383Z,101566.78
2023-05-04T17:01:51.939Z,101557.22
2023-05-04T17:04:18.396Z,101558.28
2023-05-04T17:06:45.541Z,101559.38
2023-05-04T17:09:11.923Z,101552.22
2023-05-04T17:11:38.456Z,101543.28
2023-05-04T17:14:04.940Z,101550.31
2023-05-04T17:16:34.700Z,101559.25
2023-05-04T17:19:01.130Z,101557.19
2023-05-04T17:21:27.582Z,101558.16
2023-05-04T17:23:53.967Z,101560.03
2023-05-04T17:26:20.353Z,101559.16
2023-05-04T17:28:46.782Z,101566.50
2023-05-04T17:31:13.400Z,101569.47
2023-05-04T17:33:40.045Z,101575.88
2023-05-04T17:36:07.805Z,101583.03
2023-05-04T17:38:34.506Z,101573.50
2023-05-04T17:41:01.046Z,101582.28
2023-05-04T17:43:27.755Z,101566.25
2023-05-04T17:45:55.799Z,101577.75
2023-05-04T17:48:23.881Z,101583.78
2023-05-04T17:50:50.852Z,101582.09
2023-05-04T17:53:17.207Z,101587.16
2023-05-04T17:55:43.634Z,101586.22
2023-05-04T17:58:10.057Z,101575.25
2023-05-04T18:00:37.070Z,101583.66
2023-05-04T18:03:03.802Z,101588.81
2023-05-04T18:05:30.623Z,101580.16
2023-05-04T18:07:57.064Z,101582.47
2023-05-04T18:10:23.915Z,101581.16
2023-05-04T18:12:50.447Z,101577.81
2023-05-04T18:15:18.315Z,101582.75
2023-05-04T18:17:44.777Z,101591.53
2023-05-04T18:20:13.169Z,101596.44
2023-05-04T18:22:39.723Z,101598.13
2023-05-04T18:25:07.002Z,101599.69
2023-05-04T18:27:35.087Z,101603.13
2023-05-04T18:30:03.442Z,101607.19
2023-05-04T18:32:29.982Z,101609.69
2023-05-04T18:34:58.036Z,101606.84
2023-05-04T18:37:25.099Z,101608.72
2023-05-04T18:39:51.559Z,101613.63
2023-05-04T18:42:18.050Z,101617.56
2023-05-04T18:44:44.434Z,101615.25
2023-05-04T18:47:11.301Z,101623.41
2023-05-04T18:49:38.185Z,101615.66
2023-05-04T18:52:04.850Z,101622.31
2023-05-04T18:54:34.204Z,101615.06
2023-05-04T18:57:01.104Z,101615.38
2023-05-04T18:59:27.574Z,101609.38
2023-05-04T19:01:53.920Z,101611.59
2023-05-04T19:04:20.412Z,101607.41
2023-05-04T19:06:47.675Z,101607.88
2023-05-04T19:09:14.754Z,101605.88
2023-05-04T19:11:41.334Z,101607.19
2023-05-04T19:14:07.760Z,101599.66
2023-05-04T19:16:34.169Z,101599.84
2023-05-04T19:19:00.557Z,101602.53
2023-05-04T19:21:27.725Z,101590.91
2023-05-04T19:23:54.176Z,101600.13
2023-05-04T19:26:20.610Z,101595.47
2023-05-04T19:28:47.190Z,101600.22
2023-05-04T19:31:13.718Z,101599.56
2023-05-04T19:33:47.737Z,101607.66
2023-05-04T19:36:15.395Z,101604.50
2023-05-04T19:38:41.842Z,101605.78
2023-05-04T19:41:08.244Z,101606.56
2023-05-04T19:43:34.709Z,101606.03
2023-05-04T19:46:04.127Z,101597.06
2023-05-04T19:48:30.632Z,101599.09
2023-05-04T19:50:57.079Z,101599.28
2023-05-04T19:53:23.738Z,101593.56
2023-05-04T19:55:50.261Z,101599.13
2023-05-04T19:58:16.732Z,101594.19
2023-05-04T20:00:43.186Z,101590.44
2023-05-04T20:03:10.334Z,101594.31
2023-05-04T20:05:38.320Z,101595.59
2023-05-04T20:08:05.469Z,101593.16
2023-05-04T20:10:32.298Z,101594.25
2023-05-04T20:12:58.849Z,101594.50
2023-05-04T20:15:25.327Z,101601.88
2023-05-04T20:17:52.063Z,101594.41
2023-05-04T20:20:20.368Z,101585.44
2023-05-04T20:22:49.080Z,101590.03
2023-05-04T20:25:15.582Z,101587.78
2023-05-04T20:27:42.014Z,101582.00
2023-05-04T20:30:09.667Z,101579.81
2023-05-04T20:32:36.399Z,101575.63
2023-05-04T20:35:03.058Z,101588.00
2023-05-04T20:37:29.522Z,101577.63
2023-05-04T20:39:56.001Z,101575.28
2023-05-04T20:42:22.612Z,101569.47
2023-05-04T20:44:49.020Z,101571.56
2023-05-04T20:47:15.404Z,101563.25
2023-05-04T20:49:41.750Z,101568.03
2023-05-04T20:52:08.113Z,101563.06
2023-05-04T20:54:34.564Z,101556.44
2023-05-04T20:57:01.543Z,101560.03
2023-05-04T20:59:28.061Z,101552.75
2023-05-04T21:01:54.506Z,101548.75
2023-05-04T21:04:20.946Z,101549.56
2023-05-04T21:06:48.341Z,101545.22
2023-05-04T21:09:15.454Z,101539.03
2023-05-04T21:11:41.875Z,101537.59
2023-05-04T21:14:08.382Z,101536.75
2023-05-04T21:16:34.781Z,101528.88
2023-05-04T21:19:01.247Z,101530.72
2023-05-04T21:21:27.745Z,101529.88
2023-05-04T21:23:54.119Z,101526.38
2023-05-04T21:26:20.514Z,101534.16
2023-05-04T21:28:47.120Z,101531.03
2023-05-04T21:31:13.666Z,101526.75
2023-05-04T21:33:40.113Z,101524.56
2023-05-04T21:36:13.973Z,101518.63
2023-05-04T21:38:41.045Z,101516.34
2023-05-04T21:41:15.225Z,101516.03
2023-05-04T21:43:41.978Z,101508.56
2023-05-04T21:46:08.648Z,101515.81
2023-05-04T21:48:36.002Z,101514.19
2023-05-04T21:51:02.680Z,101506.56
2023-05-04T21:53:33.241Z,101506.09
2023-05-04T21:56:00.910Z,101512.47
2023-05-04T21:58:27.426Z,101510.91
2023-05-04T22:00:54.822Z,101505.88
2023-05-04T22:03:21.717Z,101509.47
2023-05-04T22:05:55.315Z,101505.19
2023-05-04T22:08:22.530Z,101502.50
2023-05-04T22:10:50.392Z,101496.72
2023-05-04T22:13:17.204Z,101501.06
2023-05-04T22:15:49.947Z,101499.56
2023-05-04T22:18:17.152Z,101496.28
2023-05-04T22:20:43.550Z,101492.16
2023-05-04T22:23:10.629Z,101488.81
2023-05-04T22:25:37.385Z,101490.72
2023-05-04T22:28:04.700Z,101492.63
2023-05-04T22:30:31.789Z,101492.69
2023-05-04T22:32:58.464Z,101494.56
2023-05-04T22:35:25.333Z,101500.19
2023-05-04T22:37:51.877Z,101500.34
2023-05-04T22:40:18.439Z,101497.69
2023-05-04T22:42:45.018Z,101492.09
2023-05-04T22:45:13.861Z,101489.56
2023-05-04T22:47:41.385Z,101489.88
2023-05-04T22:50:11.378Z,101485.72
2023-05-04T22:52:38.170Z,101485.94
2023-05-04T22:55:05.754Z,101489.66
2023-05-04T22:57:32.191Z,101484.69
2023-05-04T22:59:58.590Z,101487.50
2023-05-04T23:02:25.191Z,101498.06
2023-05-04T23:04:53.131Z,101493.94
2023-05-04T23:07:19.764Z,101492.16
2023-05-04T23:09:46.917Z,101495.78
2023-05-04T23:12:13.604Z,101498.53
2023-05-04T23:14:39.989Z,101503.00
2023-05-04T23:17:06.496Z,101492.59
2023-05-04T23:19:33.413Z,101491.34
2023-05-04T23:22:00.084Z,101491.34
2023-05-04T23:24:26.653Z,101499.09
2023-05-04T23:26:53.174Z,101507.69
2023-05-04T23:29:20.223Z,101519.59
2023-05-04T23:31:46.738Z,101521.47
2023-05-04T23:34:13.524Z,101519.81
2023-05-04T23:36:40.162Z,101521.53
2023-05-04T23:39:06.790Z,101524.28
2023-05-04T23:41:33.316Z,101517.53
2023-05-04T23:43:59.872Z,101514.06
2023-05-04T23:46:26.414Z,101513.16
2023-05-04T23:48:52.832Z,101508.19
2023-05-04T23:51:19.306Z,101526.56
2023-05-04T23:53:45.737Z,101528.38
2023-05-04T23:56:12.997Z,101517.25
2023-05-04T23:58:39.469Z,101515.38
